North County, Missouri
Current Conditions -  °F | °C
As of 7:50 AM on Thursday 30 Oct 2014 (Local Time) from KALN Reporting Station
Scattered Clouds Scattered Clouds  
Wind Chill: 29°   Ceiling: Unl
Heat Index: 34°   Visibility: 10mi
Dew Point: 34°   Wind: 6mph
Humidity: 100%   Direction: 100°E
Pressure: 30.15"   Gusts: NA
Location:  38.7995°N, 90.1891°W
Report Text: KALN 301250Z 10005KT 10SM FEW100 SCT200 01/01 A3015
Loading
Personal Weather Stations






























Interactive Weather Map
Tropical Storm Tracking
New forecast layout! Learn more

10-Day Weather Forecast

Advertisements
Track Severe Weather on mobile